createdAt,value
2017-12-20T00:01:29.930Z,19.47
2017-12-20T00:03:56.600Z,19.70
2017-12-20T00:06:23.220Z,19.10
2017-12-20T00:08:49.820Z,19.50
2017-12-20T00:11:16.419Z,18.13
2017-12-20T00:13:43.031Z,19.50
2017-12-20T00:16:09.635Z,19.90
2017-12-20T00:18:36.256Z,19.70
2017-12-20T00:21:02.863Z,19.40
2017-12-20T00:23:29.452Z,18.93
2017-12-20T00:25:56.163Z,18.73
2017-12-20T00:28:22.764Z,19.00
2017-12-20T00:30:49.659Z,18.30
2017-12-20T00:33:16.273Z,18.70
2017-12-20T00:35:42.868Z,19.03
2017-12-20T00:38:09.472Z,19.90
2017-12-20T00:40:36.075Z,18.40
2017-12-20T00:43:02.673Z,19.83
2017-12-20T00:45:29.300Z,19.70
2017-12-20T00:47:55.908Z,19.10
2017-12-20T00:50:22.499Z,18.43
2017-12-20T00:52:49.108Z,19.10
2017-12-20T00:55:15.715Z,20.10
2017-12-20T00:57:42.324Z,18.70
2017-12-20T01:00:08.920Z,19.57
2017-12-20T01:02:35.516Z,20.20
2017-12-20T01:05:02.125Z,19.20
2017-12-20T01:07:28.719Z,20.40
2017-12-20T01:09:55.361Z,20.10
2017-12-20T01:12:21.964Z,21.07
2017-12-20T01:14:48.552Z,19.57
2017-12-20T01:17:15.160Z,20.43
2017-12-20T01:19:41.760Z,19.70
2017-12-20T01:22:08.386Z,20.03
2017-12-20T01:24:34.992Z,19.83
2017-12-20T01:27:01.593Z,21.43
2017-12-20T01:29:28.196Z,20.00
2017-12-20T01:31:54.791Z,19.80
2017-12-20T01:34:21.409Z,18.80
2017-12-20T01:36:48.008Z,21.10
2017-12-20T01:39:14.604Z,20.73
2017-12-20T01:41:53.025Z,19.00
2017-12-20T01:44:19.628Z,19.80
2017-12-20T01:46:46.233Z,20.13
2017-12-20T01:49:12.841Z,19.00
2017-12-20T01:51:39.453Z,18.80
2017-12-20T01:54:06.052Z,20.07
2017-12-20T01:56:32.648Z,20.50
2017-12-20T01:58:59.268Z,20.40
2017-12-20T02:01:25.872Z,19.10
2017-12-20T02:03:52.475Z,19.70
2017-12-20T02:06:19.088Z,18.47
2017-12-20T02:08:45.717Z,19.10
2017-12-20T02:11:12.332Z,19.40
2017-12-20T02:13:38.932Z,18.67
2017-12-20T02:16:05.527Z,18.10
2017-12-20T02:18:32.123Z,17.60
2017-12-20T02:20:58.853Z,16.57
2017-12-20T02:23:26.361Z,16.77
2017-12-20T02:25:53.467Z,17.70
2017-12-20T02:28:20.552Z,17.03
2017-12-20T02:30:47.185Z,16.33
2017-12-20T02:33:19.898Z,17.70
2017-12-20T02:35:48.285Z,18.57
2017-12-20T02:38:29.909Z,18.23
2017-12-20T02:40:56.509Z,18.07
2017-12-20T02:43:23.352Z,16.83
2017-12-20T02:45:50.715Z,17.83
2017-12-20T02:48:17.437Z,14.90
2017-12-20T02:50:44.059Z,17.60
2017-12-20T02:53:11.099Z,18.63
2017-12-20T02:55:37.877Z,18.97
2017-12-20T02:58:04.485Z,16.50
2017-12-20T03:00:31.084Z,17.80
2017-12-20T03:03:00.743Z,17.20
2017-12-20T03:05:27.856Z,16.63
2017-12-20T03:07:54.648Z,18.40
2017-12-20T03:10:24.947Z,17.37
2017-12-20T03:12:53.239Z,18.90
2017-12-20T03:15:20.074Z,17.20
2017-12-20T03:17:47.859Z,16.40
2017-12-20T03:22:46.800Z,17.93
2017-12-20T03:25:13.423Z,17.30
2017-12-20T03:27:45.505Z,17.47
2017-12-20T03:30:12.144Z,16.57
2017-12-20T03:32:38.763Z,18.40
2017-12-20T03:35:05.393Z,17.10
2017-12-20T03:37:32.022Z,17.87
2017-12-20T03:39:58.657Z,18.60
2017-12-20T03:42:25.264Z,17.80
2017-12-20T03:44:51.860Z,17.70
2017-12-20T03:47:18.468Z,18.40
2017-12-20T03:49:45.064Z,17.40
2017-12-20T03:52:11.685Z,18.13
2017-12-20T03:54:38.293Z,18.00
2017-12-20T03:57:04.892Z,16.90
2017-12-20T03:59:31.506Z,18.67
2017-12-20T04:01:58.104Z,16.87
2017-12-20T04:04:24.700Z,18.27
2017-12-20T04:06:51.418Z,17.60
2017-12-20T04:09:18.036Z,19.00
2017-12-20T04:11:44.636Z,19.10
2017-12-20T04:14:11.248Z,18.50
2017-12-20T04:16:37.844Z,16.67
2017-12-20T04:19:04.453Z,17.77
2017-12-20T04:21:31.061Z,18.10
2017-12-20T04:23:57.652Z,18.47
2017-12-20T04:26:24.272Z,16.90
2017-12-20T04:28:50.900Z,17.73
2017-12-20T04:31:17.496Z,18.47
2017-12-20T04:33:44.103Z,17.40
2017-12-20T04:36:10.717Z,17.33
2017-12-20T04:38:37.331Z,17.87
2017-12-20T04:41:03.924Z,17.03
2017-12-20T04:43:30.537Z,18.27
2017-12-20T04:45:57.143Z,19.03
2017-12-20T04:48:23.739Z,16.90
2017-12-20T04:50:50.356Z,17.90
2017-12-20T04:53:16.961Z,16.47
2017-12-20T04:55:43.568Z,17.23
2017-12-20T04:58:10.196Z,17.40
2017-12-20T05:00:36.797Z,17.40
2017-12-20T05:03:03.400Z,19.03
2017-12-20T05:05:30.021Z,19.33
2017-12-20T05:07:56.616Z,18.70
2017-12-20T05:10:23.223Z,18.40
2017-12-20T05:12:49.840Z,19.40
2017-12-20T05:15:16.448Z,18.17
2017-12-20T05:17:43.053Z,18.53
2017-12-20T05:20:09.680Z,18.27
2017-12-20T05:22:36.281Z,19.57
2017-12-20T05:25:02.913Z,18.90
2017-12-20T05:27:29.527Z,18.63
2017-12-20T05:29:56.119Z,21.20
2017-12-20T05:32:22.720Z,21.03
2017-12-20T05:34:49.329Z,24.30
2017-12-20T05:37:15.928Z,22.77
2017-12-20T05:39:42.530Z,22.60
2017-12-20T05:42:09.193Z,24.33
2017-12-20T05:44:35.802Z,24.80
2017-12-20T05:47:02.404Z,24.63
2017-12-20T05:49:29.024Z,25.43
2017-12-20T05:51:55.627Z,29.27
2017-12-20T05:54:22.220Z,26.93
2017-12-20T05:56:48.853Z,27.10
2017-12-20T05:59:15.451Z,28.17
2017-12-20T06:01:42.056Z,26.00
2017-12-20T06:04:08.684Z,26.77
2017-12-20T06:06:35.280Z,25.70
2017-12-20T06:09:01.884Z,25.30
2017-12-20T06:11:28.496Z,27.43
2017-12-20T06:13:55.100Z,25.37
2017-12-20T06:16:21.691Z,25.27
2017-12-20T06:18:48.321Z,25.10
2017-12-20T06:21:15.001Z,23.10
2017-12-20T06:23:41.599Z,28.47
2017-12-20T06:26:08.211Z,28.73
2017-12-20T06:28:34.812Z,25.67
2017-12-20T06:31:01.442Z,29.30
2017-12-20T06:33:28.075Z,28.67
2017-12-20T06:35:54.673Z,27.67
2017-12-20T06:38:21.272Z,29.00
2017-12-20T06:40:47.983Z,36.00
2017-12-20T06:43:14.593Z,34.20
2017-12-20T06:45:41.228Z,35.00
2017-12-20T06:48:07.866Z,37.93
2017-12-20T06:50:34.464Z,38.50
2017-12-20T06:53:01.068Z,39.83
2017-12-20T06:55:27.767Z,37.17
2017-12-20T06:57:54.380Z,31.73
2017-12-20T07:00:20.997Z,32.47
2017-12-20T07:02:47.603Z,31.73
2017-12-20T07:05:14.208Z,33.57
2017-12-20T07:07:40.808Z,32.63
2017-12-20T07:10:07.429Z,32.30
2017-12-20T07:12:34.029Z,30.07
2017-12-20T07:15:00.625Z,30.87
2017-12-20T07:17:27.236Z,31.60
2017-12-20T07:19:53.845Z,31.43
2017-12-20T07:22:20.440Z,32.33
2017-12-20T07:24:47.055Z,32.00
2017-12-20T07:27:13.675Z,31.87
2017-12-20T07:29:40.288Z,32.40
2017-12-20T07:32:06.904Z,31.63
2017-12-20T07:34:33.553Z,34.27
2017-12-20T07:37:00.147Z,32.07
2017-12-20T07:39:26.768Z,30.67
2017-12-20T07:41:53.364Z,32.10
2017-12-20T07:44:19.964Z,31.60
2017-12-20T07:46:46.582Z,29.33
2017-12-20T07:49:13.175Z,29.40
2017-12-20T07:51:39.776Z,29.60
2017-12-20T07:54:06.389Z,30.80
2017-12-20T07:56:32.995Z,31.60
2017-12-20T07:58:59.597Z,31.37
2017-12-20T08:01:26.212Z,31.43
2017-12-20T08:03:52.816Z,29.23
2017-12-20T08:06:19.794Z,31.80
2017-12-20T08:08:46.408Z,32.30
2017-12-20T08:11:13.040Z,30.83
2017-12-20T08:13:39.640Z,28.60
2017-12-20T08:16:06.267Z,32.40
2017-12-20T08:18:32.880Z,34.37
2017-12-20T08:20:59.488Z,34.53
2017-12-20T08:23:26.101Z,33.33
2017-12-20T08:25:52.700Z,34.23
2017-12-20T08:28:19.300Z,31.80
2017-12-20T08:30:45.918Z,32.60
2017-12-20T08:33:12.518Z,31.00
2017-12-20T08:35:39.120Z,33.00
2017-12-20T08:38:05.739Z,33.13
2017-12-20T08:40:32.351Z,36.07
2017-12-20T08:42:58.972Z,33.53
2017-12-20T08:45:25.580Z,31.77
2017-12-20T08:47:52.176Z,31.80
2017-12-20T08:50:18.784Z,35.43
2017-12-20T08:52:45.406Z,33.60
2017-12-20T08:55:12.012Z,34.10
2017-12-20T08:57:38.616Z,34.77
2017-12-20T09:00:05.239Z,32.10
2017-12-20T09:02:31.839Z,32.80
2017-12-20T09:04:58.543Z,31.83
2017-12-20T09:07:25.172Z,31.60
2017-12-20T09:09:51.780Z,30.70
2017-12-20T09:12:18.376Z,31.57
2017-12-20T09:14:44.995Z,31.07
2017-12-20T09:17:11.598Z,33.40
2017-12-20T09:19:38.204Z,34.10
2017-12-20T09:22:04.848Z,32.20
2017-12-20T09:24:31.444Z,32.87
2017-12-20T09:26:58.079Z,34.70
2017-12-20T09:29:24.695Z,35.80
2017-12-20T09:31:51.295Z,34.33
2017-12-20T09:34:17.897Z,34.17
2017-12-20T09:36:44.517Z,34.53
2017-12-20T09:39:11.116Z,34.30
2017-12-20T09:41:37.725Z,33.27
2017-12-20T09:44:04.347Z,34.50
2017-12-20T09:46:31.060Z,33.47
2017-12-20T09:48:57.652Z,32.43
2017-12-20T09:51:24.560Z,34.17
2017-12-20T09:53:51.159Z,35.30
2017-12-20T09:56:17.832Z,33.90
2017-12-20T09:58:44.473Z,32.77
2017-12-20T10:01:13.044Z,33.53
2017-12-20T10:03:39.641Z,33.30
2017-12-20T10:06:06.256Z,33.57
2017-12-20T10:08:32.859Z,32.00
2017-12-20T10:10:59.460Z,31.40
2017-12-20T10:13:26.156Z,29.57
2017-12-20T10:15:52.756Z,31.90
2017-12-20T10:18:19.542Z,32.53
2017-12-20T10:20:46.140Z,32.30
2017-12-20T10:23:12.748Z,32.90
2017-12-20T10:25:39.343Z,33.23
2017-12-20T10:28:06.032Z,33.67
2017-12-20T10:30:32.632Z,35.63
2017-12-20T10:32:59.240Z,34.47
2017-12-20T10:35:25.852Z,33.80
2017-12-20T10:37:52.459Z,33.63
2017-12-20T10:40:19.060Z,33.23
2017-12-20T10:42:45.676Z,34.87
2017-12-20T10:45:12.280Z,35.37
2017-12-20T10:47:38.879Z,33.77
2017-12-20T10:50:05.509Z,33.70
2017-12-20T10:52:32.097Z,34.30
2017-12-20T10:54:58.691Z,33.90
2017-12-20T10:57:25.304Z,34.47
2017-12-20T10:59:51.913Z,31.80
2017-12-20T11:02:18.508Z,33.87
2017-12-20T11:04:45.119Z,33.07
2017-12-20T11:07:13.739Z,34.60
2017-12-20T11:09:40.342Z,33.90
2017-12-20T11:12:06.960Z,35.57
2017-12-20T11:14:33.566Z,33.30
2017-12-20T11:17:00.168Z,34.10
2017-12-20T11:19:26.783Z,35.97
2017-12-20T11:21:53.384Z,36.00
2017-12-20T11:24:20.016Z,34.27
2017-12-20T11:26:46.661Z,35.30
2017-12-20T11:29:13.368Z,34.00
2017-12-20T11:31:39.968Z,35.20
2017-12-20T11:34:06.592Z,35.87
2017-12-20T11:36:33.220Z,36.13
2017-12-20T11:38:59.827Z,34.67
2017-12-20T11:41:26.443Z,37.53
2017-12-20T11:43:53.089Z,38.10
2017-12-20T11:46:19.712Z,36.07
2017-12-20T11:48:46.326Z,34.57
2017-12-20T11:51:12.926Z,37.17
2017-12-20T11:53:39.525Z,33.37
2017-12-20T11:56:06.172Z,33.27
2017-12-20T11:58:32.783Z,33.30
2017-12-20T12:00:59.388Z,33.07
2017-12-20T12:03:25.997Z,40.67
2017-12-20T12:05:52.687Z,42.53
2017-12-20T12:08:19.371Z,38.80
2017-12-20T12:10:46.436Z,35.20
2017-12-20T12:13:13.076Z,35.30
2017-12-20T12:15:39.716Z,39.80
2017-12-20T12:18:06.404Z,36.57
2017-12-20T12:20:33.077Z,39.70
2017-12-20T12:22:59.713Z,34.73
2017-12-20T12:25:26.327Z,33.90
2017-12-20T12:27:52.975Z,35.63
2017-12-20T12:30:19.617Z,34.80
2017-12-20T12:32:46.256Z,33.60
2017-12-20T12:35:12.852Z,35.43
2017-12-20T12:37:39.480Z,33.67
2017-12-20T12:40:06.100Z,31.27
2017-12-20T12:42:32.700Z,32.80
2017-12-20T12:44:59.309Z,33.23
2017-12-20T12:47:25.925Z,32.87
2017-12-20T12:49:52.521Z,33.10
2017-12-20T12:52:19.127Z,33.10
2017-12-20T12:54:45.739Z,33.47
2017-12-20T12:57:12.336Z,31.40
2017-12-20T12:59:38.940Z,30.43
2017-12-20T13:02:05.576Z,31.57
2017-12-20T13:04:32.175Z,30.60
2017-12-20T13:06:58.776Z,30.77
2017-12-20T13:09:25.387Z,30.27
2017-12-20T13:11:51.988Z,30.40
2017-12-20T13:14:18.600Z,29.63
2017-12-20T13:16:45.214Z,29.50
2017-12-20T13:19:11.819Z,29.60
2017-12-20T13:21:38.423Z,30.40
2017-12-20T13:24:05.049Z,29.20
2017-12-20T13:26:31.647Z,29.63
2017-12-20T13:28:58.248Z,29.50
2017-12-20T13:31:24.863Z,31.57
2017-12-20T13:33:51.476Z,33.03
2017-12-20T13:36:18.085Z,31.97
2017-12-20T13:38:44.708Z,34.97
2017-12-20T13:41:11.320Z,32.60
2017-12-20T13:43:37.919Z,33.30
2017-12-20T13:46:04.545Z,35.57
2017-12-20T13:48:31.152Z,31.53
2017-12-20T13:50:57.756Z,34.07
2017-12-20T13:53:24.377Z,35.47
2017-12-20T13:55:50.983Z,34.60
2017-12-20T13:58:17.587Z,33.07
2017-12-20T14:00:44.206Z,32.80
2017-12-20T14:03:10.808Z,36.10
2017-12-20T14:05:37.416Z,36.53
2017-12-20T14:08:04.031Z,34.60
2017-12-20T14:10:30.631Z,35.03
2017-12-20T14:12:57.234Z,29.90
2017-12-20T14:15:23.851Z,31.83
2017-12-20T14:17:50.456Z,32.87
2017-12-20T14:20:17.064Z,34.63
2017-12-20T14:22:43.679Z,35.70
2017-12-20T14:25:10.292Z,36.77
2017-12-20T14:27:36.884Z,36.70
2017-12-20T14:30:03.508Z,35.03
2017-12-20T14:32:30.112Z,35.80
2017-12-20T14:34:56.720Z,34.30
2017-12-20T14:37:23.332Z,32.07
2017-12-20T14:39:49.936Z,33.60
2017-12-20T14:42:16.536Z,34.87
2017-12-20T14:44:43.163Z,32.07
2017-12-20T14:47:09.764Z,34.90
2017-12-20T14:49:36.368Z,32.50
2017-12-20T14:52:02.992Z,31.03
2017-12-20T14:54:29.598Z,33.57
2017-12-20T14:56:56.217Z,31.60
2017-12-20T14:59:22.831Z,32.13
2017-12-20T15:01:51.352Z,33.63
2017-12-20T15:04:17.975Z,32.97
2017-12-20T15:06:44.593Z,32.27
2017-12-20T15:09:11.191Z,31.93
2017-12-20T15:11:37.796Z,34.10
2017-12-20T15:14:04.412Z,32.00
2017-12-20T15:16:31.017Z,32.60
2017-12-20T15:18:57.623Z,33.13
2017-12-20T15:21:24.237Z,34.27
2017-12-20T15:23:50.837Z,34.20
2017-12-20T15:26:17.446Z,33.50
2017-12-20T15:28:44.069Z,35.23
2017-12-20T15:31:10.671Z,33.63
2017-12-20T15:33:37.283Z,36.03
2017-12-20T15:36:03.900Z,33.37
2017-12-20T15:38:30.509Z,33.17
2017-12-20T15:40:57.108Z,33.40
2017-12-20T15:43:23.723Z,31.80
2017-12-20T15:45:50.329Z,32.00
2017-12-20T15:48:16.927Z,33.03
2017-12-20T15:50:43.539Z,34.13
2017-12-20T15:53:10.154Z,32.80
2017-12-20T15:55:36.739Z,33.93
2017-12-20T15:58:03.364Z,33.53
2017-12-20T16:00:29.965Z,31.33
2017-12-20T16:02:56.571Z,32.50
2017-12-20T16:05:23.188Z,30.30
2017-12-20T16:07:49.785Z,31.43
2017-12-20T16:10:16.446Z,32.63
2017-12-20T16:12:43.048Z,30.40
2017-12-20T16:15:09.653Z,29.27
2017-12-20T16:17:36.261Z,27.70
2017-12-20T16:20:02.925Z,29.90
2017-12-20T16:22:29.526Z,27.00
2017-12-20T16:24:56.136Z,27.53
2017-12-20T16:27:22.750Z,31.47
2017-12-20T16:29:50.209Z,31.80
2017-12-20T16:32:16.783Z,30.37
2017-12-20T16:34:43.396Z,32.07
2017-12-20T16:37:10.005Z,32.30
2017-12-20T16:39:36.612Z,35.50
2017-12-20T16:42:03.248Z,31.80
2017-12-20T16:44:29.848Z,29.93
2017-12-20T16:46:56.451Z,29.57
2017-12-20T16:49:23.064Z,32.70
2017-12-20T16:51:49.663Z,30.70
2017-12-20T16:54:16.264Z,31.30
2017-12-20T16:56:42.880Z,29.93
2017-12-20T16:59:09.492Z,29.77
2017-12-20T17:01:36.091Z,29.43
2017-12-20T17:04:02.708Z,28.57
2017-12-20T17:06:29.304Z,29.00
2017-12-20T17:08:55.915Z,30.30
2017-12-20T17:11:22.557Z,32.27
2017-12-20T17:13:49.160Z,33.13
2017-12-20T17:16:15.803Z,29.93
2017-12-20T17:18:42.423Z,30.80
2017-12-20T17:21:09.016Z,30.20
2017-12-20T17:23:35.616Z,28.83
2017-12-20T17:26:02.243Z,31.00
2017-12-20T17:28:28.836Z,31.77
2017-12-20T17:30:55.436Z,31.60
2017-12-20T17:33:22.051Z,31.40
2017-12-20T17:35:48.654Z,29.37
2017-12-20T17:38:15.304Z,27.70
2017-12-20T17:40:41.920Z,26.20
2017-12-20T17:43:08.520Z,26.70
2017-12-20T17:45:35.151Z,26.70
2017-12-20T17:48:01.760Z,25.20
2017-12-20T17:50:28.355Z,24.27
2017-12-20T17:52:54.960Z,24.00
2017-12-20T17:55:21.576Z,24.17
2017-12-20T17:57:48.171Z,21.90
2017-12-20T18:00:14.767Z,27.67
2017-12-20T18:02:41.396Z,25.60
2017-12-20T18:05:07.994Z,26.47
2017-12-20T18:07:34.593Z,25.67
2017-12-20T18:10:01.215Z,25.97
2017-12-20T18:12:27.808Z,27.30
2017-12-20T18:14:54.412Z,26.50
2017-12-20T18:17:21.024Z,26.33
2017-12-20T18:19:47.628Z,28.30
2017-12-20T18:22:14.239Z,27.50
2017-12-20T18:24:40.865Z,27.30
2017-12-20T18:27:07.468Z,25.63
2017-12-20T18:29:34.073Z,24.70
2017-12-20T18:32:00.744Z,27.60
2017-12-20T18:34:27.336Z,25.33
2017-12-20T18:36:53.935Z,29.40
2017-12-20T18:39:20.555Z,27.43
2017-12-20T18:41:47.159Z,29.37
2017-12-20T18:44:13.760Z,24.90
2017-12-20T18:46:40.388Z,25.60
2017-12-20T18:49:06.988Z,24.07
2017-12-20T18:51:33.609Z,24.07
2017-12-20T18:54:00.236Z,20.97
2017-12-20T18:56:26.827Z,21.77
2017-12-20T18:58:53.436Z,21.20
2017-12-20T19:01:20.061Z,21.10
2017-12-20T19:03:46.664Z,20.30
2017-12-20T19:06:13.269Z,19.80
2017-12-20T19:08:39.883Z,24.20
2017-12-20T19:11:06.488Z,23.10
2017-12-20T19:13:33.086Z,25.10
2017-12-20T19:15:59.721Z,47.67
2017-12-20T19:18:26.320Z,38.20
2017-12-20T19:20:52.924Z,46.33
2017-12-20T19:23:19.540Z,102.07
2017-12-20T19:25:46.150Z,76.30
2017-12-20T19:28:12.748Z,41.37
2017-12-20T19:30:39.368Z,37.30
2017-12-20T19:33:05.977Z,28.60
2017-12-20T19:35:32.595Z,26.97
2017-12-20T19:37:59.240Z,25.87
2017-12-20T19:40:25.836Z,24.13
2017-12-20T19:42:52.436Z,21.80
2017-12-20T19:45:19.560Z,20.73
2017-12-20T19:47:46.160Z,25.73
2017-12-20T19:50:12.760Z,21.00
2017-12-20T19:52:39.392Z,19.80
2017-12-20T19:55:06.022Z,20.27
2017-12-20T19:57:32.637Z,20.63
2017-12-20T20:00:05.805Z,22.33
2017-12-20T20:02:33.778Z,22.00
2017-12-20T20:05:00.406Z,24.87
2017-12-20T20:07:33.935Z,25.70
2017-12-20T20:10:00.918Z,23.90
2017-12-20T20:12:35.382Z,21.63
2017-12-20T20:15:02.034Z,22.03
2017-12-20T20:17:33.464Z,21.57
2017-12-20T20:20:06.133Z,21.80
2017-12-20T20:22:33.666Z,23.70
2017-12-20T20:25:03.764Z,23.10
2017-12-20T20:27:30.403Z,22.33
2017-12-20T20:29:57.057Z,21.97
2017-12-20T20:32:29.523Z,23.80
2017-12-20T20:34:56.289Z,22.00
2017-12-20T20:37:23.058Z,21.37
2017-12-20T20:39:58.553Z,21.47
2017-12-20T20:42:25.344Z,23.60
2017-12-20T20:44:52.042Z,21.80
2017-12-20T20:47:18.640Z,20.83
2017-12-20T20:49:45.252Z,21.83
2017-12-20T20:52:11.882Z,22.13
2017-12-20T20:54:38.481Z,19.60
2017-12-20T20:57:05.100Z,20.37
2017-12-20T20:59:31.705Z,21.80
2017-12-20T21:01:58.312Z,21.60
2017-12-20T21:04:24.928Z,21.40
2017-12-20T21:06:54.867Z,20.70
2017-12-20T21:09:22.298Z,20.17
2017-12-20T21:11:49.776Z,19.70
2017-12-20T21:14:17.328Z,19.20
2017-12-20T21:16:43.998Z,20.67
2017-12-20T21:19:10.689Z,22.43
2017-12-20T21:21:37.284Z,21.13
2017-12-20T21:24:03.888Z,22.20
2017-12-20T21:26:30.527Z,23.20
2017-12-20T21:28:57.132Z,25.43
2017-12-20T21:31:23.738Z,22.37
2017-12-20T21:33:50.340Z,22.20
2017-12-20T21:36:16.936Z,24.83
2017-12-20T21:38:43.531Z,22.53
2017-12-20T21:41:10.164Z,23.90
2017-12-20T21:43:36.766Z,22.77
2017-12-20T21:46:03.376Z,23.47
2017-12-20T21:48:29.999Z,23.60
2017-12-20T21:50:56.596Z,21.10
2017-12-20T21:53:23.240Z,22.80
2017-12-20T21:55:49.855Z,21.50
2017-12-20T21:58:16.453Z,20.30
2017-12-20T22:00:43.052Z,20.90
2017-12-20T22:03:09.672Z,21.07
2017-12-20T22:05:36.272Z,20.30
2017-12-20T22:08:02.875Z,20.27
2017-12-20T22:10:29.508Z,20.87
2017-12-20T22:12:56.092Z,19.30
2017-12-20T22:15:22.696Z,19.30
2017-12-20T22:17:49.319Z,19.40
2017-12-20T22:20:15.920Z,19.17
2017-12-20T22:22:42.515Z,18.40
2017-12-20T22:25:09.140Z,20.70
2017-12-20T22:27:35.755Z,20.67
2017-12-20T22:30:02.361Z,18.60
2017-12-20T22:32:28.988Z,17.27
2017-12-20T22:34:55.593Z,16.10
2017-12-20T22:37:22.867Z,16.30
2017-12-20T22:39:49.468Z,16.83
2017-12-20T22:42:16.069Z,19.00
2017-12-20T22:44:42.684Z,18.80
2017-12-20T22:47:09.296Z,18.23
2017-12-20T22:49:35.897Z,18.20
2017-12-20T22:52:02.500Z,17.53
2017-12-20T22:54:29.114Z,18.30
2017-12-20T22:56:55.720Z,17.73
2017-12-20T22:59:22.320Z,16.27
2017-12-20T23:01:48.929Z,14.77
2017-12-20T23:04:15.537Z,16.67
2017-12-20T23:06:42.137Z,16.23
2017-12-20T23:09:08.752Z,16.40
2017-12-20T23:11:35.359Z,16.50
2017-12-20T23:14:03.916Z,17.83
2017-12-20T23:16:30.536Z,17.63
2017-12-20T23:18:57.137Z,17.10
2017-12-20T23:21:23.732Z,18.17
2017-12-20T23:23:50.358Z,18.07
2017-12-20T23:26:16.971Z,18.10
2017-12-20T23:28:43.572Z,18.57
2017-12-20T23:31:10.180Z,18.90
2017-12-20T23:33:36.817Z,19.40
2017-12-20T23:36:03.445Z,19.37
2017-12-20T23:38:30.057Z,18.30
2017-12-20T23:40:56.660Z,18.13
2017-12-20T23:43:23.256Z,20.50
2017-12-20T23:45:49.864Z,19.73
2017-12-20T23:48:16.465Z,19.30
2017-12-20T23:50:43.079Z,18.00
2017-12-20T23:53:09.680Z,19.33
2017-12-20T23:55:36.298Z,19.03
2017-12-20T23:58:02.897Z,19.30
